sensor_id;sensor_type;location;lat;lon;timestamp;P1;durP1;ratioP1;P2;durP2;ratioP2
83094;SDS011;72967;43.674;6.976;2024-03-02T00:01:16;2.17;;;1.85;;
83094;SDS011;72967;43.674;6.976;2024-03-02T00:03:42;3.63;;;1.60;;
83094;SDS011;72967;43.674;6.976;2024-03-02T00:06:08;2.22;;;1.58;;
83094;SDS011;72967;43.674;6.976;2024-03-02T00:08:34;2.35;;;1.42;;
83094;SDS011;72967;43.674;6.976;2024-03-02T00:11:00;2.33;;;1.50;;
83094;SDS011;72967;43.674;6.976;2024-03-02T00:13:27;2.88;;;1.55;;
83094;SDS011;72967;43.674;6.976;2024-03-02T00:15:55;1.98;;;1.48;;
83094;SDS011;72967;43.674;6.976;2024-03-02T00:18:25;2.63;;;1.60;;
83094;SDS011;72967;43.674;6.976;2024-03-02T00:20:53;1.90;;;1.75;;
83094;SDS011;72967;43.674;6.976;2024-03-02T00:23:20;1.98;;;1.65;;
83094;SDS011;72967;43.674;6.976;2024-03-02T00:25:47;3.55;;;1.95;;
83094;SDS011;72967;43.674;6.976;2024-03-02T00:28:18;2.20;;;1.50;;
83094;SDS011;72967;43.674;6.976;2024-03-02T00:33:26;2.33;;;1.70;;
83094;SDS011;72967;43.674;6.976;2024-03-02T00:35:55;6.22;;;1.67;;
83094;SDS011;72967;43.674;6.976;2024-03-02T00:38:21;3.80;;;2.35;;
83094;SDS011;72967;43.674;6.976;2024-03-02T00:40:47;2.47;;;1.90;;
83094;SDS011;72967;43.674;6.976;2024-03-02T00:46:10;2.75;;;1.10;;
83094;SDS011;72967;43.674;6.976;2024-03-02T00:48:51;3.30;;;1.58;;
83094;SDS011;72967;43.674;6.976;2024-03-02T00:51:22;3.13;;;1.45;;
83094;SDS011;72967;43.674;6.976;2024-03-02T00:53:48;1.83;;;1.70;;
83094;SDS011;72967;43.674;6.976;2024-03-02T00:56:14;2.08;;;1.50;;
83094;SDS011;72967;43.674;6.976;2024-03-02T00:58:40;2.08;;;1.65;;
83094;SDS011;72967;43.674;6.976;2024-03-02T01:01:05;2.08;;;1.63;;
83094;SDS011;72967;43.674;6.976;2024-03-02T01:03:32;4.40;;;1.60;;
83094;SDS011;72967;43.674;6.976;2024-03-02T01:05:58;1.95;;;1.58;;
83094;SDS011;72967;43.674;6.976;2024-03-02T01:08:23;2.70;;;1.40;;
83094;SDS011;72967;43.674;6.976;2024-03-02T01:10:49;2.35;;;1.80;;
83094;SDS011;72967;43.674;6.976;2024-03-02T01:13:15;3.40;;;1.92;;
83094;SDS011;72967;43.674;6.976;2024-03-02T01:15:40;2.00;;;1.52;;
83094;SDS011;72967;43.674;6.976;2024-03-02T01:18:05;3.97;;;1.83;;
83094;SDS011;72967;43.674;6.976;2024-03-02T01:20:31;3.97;;;1.50;;
83094;SDS011;72967;43.674;6.976;2024-03-02T01:22:56;4.78;;;2.00;;
83094;SDS011;72967;43.674;6.976;2024-03-02T01:25:22;2.00;;;1.50;;
83094;SDS011;72967;43.674;6.976;2024-03-02T01:27:47;2.85;;;1.75;;
83094;SDS011;72967;43.674;6.976;2024-03-02T01:30:13;1.73;;;1.63;;
83094;SDS011;72967;43.674;6.976;2024-03-02T01:32:38;1.58;;;1.48;;
83094;SDS011;72967;43.674;6.976;2024-03-02T01:35:04;2.42;;;1.65;;
83094;SDS011;72967;43.674;6.976;2024-03-02T01:37:32;1.20;;;1.10;;
83094;SDS011;72967;43.674;6.976;2024-03-02T01:39:57;2.85;;;1.73;;
83094;SDS011;72967;43.674;6.976;2024-03-02T01:42:23;3.22;;;1.60;;
83094;SDS011;72967;43.674;6.976;2024-03-02T01:44:48;1.70;;;1.40;;
83094;SDS011;72967;43.674;6.976;2024-03-02T01:47:14;2.70;;;1.42;;
83094;SDS011;72967;43.674;6.976;2024-03-02T01:49:39;3.20;;;1.80;;
83094;SDS011;72967;43.674;6.976;2024-03-02T01:52:06;3.17;;;1.60;;
83094;SDS011;72967;43.674;6.976;2024-03-02T01:54:32;4.57;;;2.28;;
83094;SDS011;72967;43.674;6.976;2024-03-02T01:56:57;2.83;;;2.60;;
83094;SDS011;72967;43.674;6.976;2024-03-02T01:59:23;4.20;;;2.25;;
83094;SDS011;72967;43.674;6.976;2024-03-02T02:01:49;2.58;;;1.92;;
83094;SDS011;72967;43.674;6.976;2024-03-02T02:04:14;2.75;;;1.88;;
83094;SDS011;72967;43.674;6.976;2024-03-02T02:06:40;3.60;;;2.15;;
83094;SDS011;72967;43.674;6.976;2024-03-02T02:09:05;2.95;;;1.30;;
83094;SDS011;72967;43.674;6.976;2024-03-02T02:11:33;1.90;;;1.17;;
83094;SDS011;72967;43.674;6.976;2024-03-02T02:13:59;2.58;;;1.20;;
83094;SDS011;72967;43.674;6.976;2024-03-02T02:16:24;2.38;;;1.25;;
83094;SDS011;72967;43.674;6.976;2024-03-02T02:18:49;2.03;;;1.30;;
83094;SDS011;72967;43.674;6.976;2024-03-02T02:21:15;1.98;;;1.70;;
83094;SDS011;72967;43.674;6.976;2024-03-02T02:23:40;1.85;;;1.50;;
83094;SDS011;72967;43.674;6.976;2024-03-02T02:26:11;2.65;;;1.50;;
83094;SDS011;72967;43.674;6.976;2024-03-02T02:28:36;2.05;;;1.30;;
83094;SDS011;72967;43.674;6.976;2024-03-02T02:31:02;3.25;;;1.70;;
83094;SDS011;72967;43.674;6.976;2024-03-02T02:33:28;2.10;;;1.58;;
83094;SDS011;72967;43.674;6.976;2024-03-02T02:35:54;1.98;;;1.58;;
83094;SDS011;72967;43.674;6.976;2024-03-02T02:38:19;2.85;;;1.27;;
83094;SDS011;72967;43.674;6.976;2024-03-02T02:40:45;1.80;;;1.40;;
83094;SDS011;72967;43.674;6.976;2024-03-02T02:43:10;2.00;;;1.65;;
83094;SDS011;72967;43.674;6.976;2024-03-02T02:45:36;2.50;;;1.42;;
83094;SDS011;72967;43.674;6.976;2024-03-02T02:48:01;2.38;;;1.38;;
83094;SDS011;72967;43.674;6.976;2024-03-02T02:50:27;2.35;;;1.38;;
83094;SDS011;72967;43.674;6.976;2024-03-02T02:52:53;1.75;;;1.60;;
83094;SDS011;72967;43.674;6.976;2024-03-02T02:55:18;1.40;;;1.30;;
83094;SDS011;72967;43.674;6.976;2024-03-02T02:57:44;6.80;;;1.77;;
83094;SDS011;72967;43.674;6.976;2024-03-02T03:02:40;1.75;;;1.35;;
83094;SDS011;72967;43.674;6.976;2024-03-02T03:05:08;2.40;;;1.52;;
83094;SDS011;72967;43.674;6.976;2024-03-02T03:07:35;2.55;;;1.45;;
83094;SDS011;72967;43.674;6.976;2024-03-02T03:10:01;2.10;;;1.27;;
83094;SDS011;72967;43.674;6.976;2024-03-02T03:12:28;1.70;;;1.60;;
83094;SDS011;72967;43.674;6.976;2024-03-02T03:14:54;1.70;;;1.38;;
83094;SDS011;72967;43.674;6.976;2024-03-02T03:17:21;1.58;;;1.27;;
83094;SDS011;72967;43.674;6.976;2024-03-02T03:19:46;2.50;;;1.20;;
83094;SDS011;72967;43.674;6.976;2024-03-02T03:22:12;1.30;;;1.20;;
83094;SDS011;72967;43.674;6.976;2024-03-02T03:24:38;3.90;;;1.83;;
83094;SDS011;72967;43.674;6.976;2024-03-02T03:27:03;2.13;;;1.45;;
83094;SDS011;72967;43.674;6.976;2024-03-02T03:29:29;3.40;;;1.48;;
83094;SDS011;72967;43.674;6.976;2024-03-02T03:31:54;2.05;;;1.30;;
83094;SDS011;72967;43.674;6.976;2024-03-02T03:34:20;2.03;;;1.10;;
83094;SDS011;72967;43.674;6.976;2024-03-02T03:36:45;1.88;;;1.55;;
83094;SDS011;72967;43.674;6.976;2024-03-02T03:39:10;2.53;;;2.20;;
83094;SDS011;72967;43.674;6.976;2024-03-02T03:41:36;1.40;;;1.30;;
83094;SDS011;72967;43.674;6.976;2024-03-02T03:44:02;2.20;;;1.30;;
83094;SDS011;72967;43.674;6.976;2024-03-02T03:46:28;3.30;;;1.58;;
83094;SDS011;72967;43.674;6.976;2024-03-02T03:48:54;2.75;;;1.40;;
83094;SDS011;72967;43.674;6.976;2024-03-02T03:51:21;3.17;;;1.73;;
83094;SDS011;72967;43.674;6.976;2024-03-02T03:53:47;2.78;;;1.40;;
83094;SDS011;72967;43.674;6.976;2024-03-02T03:56:13;1.50;;;1.33;;
83094;SDS011;72967;43.674;6.976;2024-03-02T03:58:39;2.65;;;1.42;;
83094;SDS011;72967;43.674;6.976;2024-03-02T04:01:04;3.28;;;1.92;;
83094;SDS011;72967;43.674;6.976;2024-03-02T04:03:29;1.77;;;1.65;;
83094;SDS011;72967;43.674;6.976;2024-03-02T04:05:55;2.35;;;1.45;;
83094;SDS011;72967;43.674;6.976;2024-03-02T04:08:21;1.83;;;1.42;;
83094;SDS011;72967;43.674;6.976;2024-03-02T04:10:46;2.20;;;1.80;;
83094;SDS011;72967;43.674;6.976;2024-03-02T04:13:12;2.20;;;1.75;;
83094;SDS011;72967;43.674;6.976;2024-03-02T04:15:37;1.90;;;1.70;;
83094;SDS011;72967;43.674;6.976;2024-03-02T04:18:03;2.92;;;1.70;;
83094;SDS011;72967;43.674;6.976;2024-03-02T04:20:28;3.70;;;1.70;;
83094;SDS011;72967;43.674;6.976;2024-03-02T04:22:55;3.92;;;1.60;;
83094;SDS011;72967;43.674;6.976;2024-03-02T04:25:20;3.63;;;1.83;;
83094;SDS011;72967;43.674;6.976;2024-03-02T04:27:46;2.40;;;1.35;;
83094;SDS011;72967;43.674;6.976;2024-03-02T04:30:12;1.65;;;1.30;;
83094;SDS011;72967;43.674;6.976;2024-03-02T04:32:38;5.10;;;1.77;;
83094;SDS011;72967;43.674;6.976;2024-03-02T04:35:04;2.40;;;1.58;;
83094;SDS011;72967;43.674;6.976;2024-03-02T04:37:31;3.25;;;1.40;;
83094;SDS011;72967;43.674;6.976;2024-03-02T04:39:58;4.78;;;2.35;;
83094;SDS011;72967;43.674;6.976;2024-03-02T04:42:23;1.92;;;1.55;;
83094;SDS011;72967;43.674;6.976;2024-03-02T04:44:49;1.63;;;1.52;;
83094;SDS011;72967;43.674;6.976;2024-03-02T04:47:15;2.70;;;1.50;;
83094;SDS011;72967;43.674;6.976;2024-03-02T04:49:40;2.30;;;1.40;;
83094;SDS011;72967;43.674;6.976;2024-03-02T04:52:05;1.70;;;1.60;;
83094;SDS011;72967;43.674;6.976;2024-03-02T04:54:31;1.55;;;1.45;;
83094;SDS011;72967;43.674;6.976;2024-03-02T04:56:56;4.60;;;1.63;;
83094;SDS011;72967;43.674;6.976;2024-03-02T04:59:22;3.20;;;1.30;;
83094;SDS011;72967;43.674;6.976;2024-03-02T05:01:47;2.25;;;1.52;;
83094;SDS011;72967;43.674;6.976;2024-03-02T05:04:13;2.35;;;1.33;;
83094;SDS011;72967;43.674;6.976;2024-03-02T05:06:39;1.52;;;1.42;;
83094;SDS011;72967;43.674;6.976;2024-03-02T05:09:08;1.38;;;1.25;;
83094;SDS011;72967;43.674;6.976;2024-03-02T05:11:34;2.80;;;1.67;;
83094;SDS011;72967;43.674;6.976;2024-03-02T05:14:03;1.88;;;1.45;;
83094;SDS011;72967;43.674;6.976;2024-03-02T05:16:29;1.92;;;1.27;;
83094;SDS011;72967;43.674;6.976;2024-03-02T05:19:01;1.75;;;1.63;;
83094;SDS011;72967;43.674;6.976;2024-03-02T05:21:27;2.50;;;1.35;;
83094;SDS011;72967;43.674;6.976;2024-03-02T05:23:52;2.25;;;1.25;;
83094;SDS011;72967;43.674;6.976;2024-03-02T05:26:18;1.75;;;1.60;;
83094;SDS011;72967;43.674;6.976;2024-03-02T05:28:43;3.90;;;1.50;;
83094;SDS011;72967;43.674;6.976;2024-03-02T05:31:10;2.00;;;1.40;;
83094;SDS011;72967;43.674;6.976;2024-03-02T05:33:37;1.95;;;1.60;;
83094;SDS011;72967;43.674;6.976;2024-03-02T05:36:03;1.70;;;1.10;;
83094;SDS011;72967;43.674;6.976;2024-03-02T05:38:29;1.23;;;1.13;;
83094;SDS011;72967;43.674;6.976;2024-03-02T05:40:55;1.35;;;1.25;;
83094;SDS011;72967;43.674;6.976;2024-03-02T05:43:20;2.67;;;1.58;;
83094;SDS011;72967;43.674;6.976;2024-03-02T05:45:45;1.63;;;1.52;;
83094;SDS011;72967;43.674;6.976;2024-03-02T05:48:11;2.55;;;1.40;;
83094;SDS011;72967;43.674;6.976;2024-03-02T05:50:36;1.95;;;1.83;;
83094;SDS011;72967;43.674;6.976;2024-03-02T05:53:02;1.70;;;1.15;;
83094;SDS011;72967;43.674;6.976;2024-03-02T05:55:27;1.90;;;1.20;;
83094;SDS011;72967;43.674;6.976;2024-03-02T05:57:53;2.45;;;1.98;;
83094;SDS011;72967;43.674;6.976;2024-03-02T06:00:37;3.28;;;1.30;;
83094;SDS011;72967;43.674;6.976;2024-03-02T06:03:03;3.13;;;1.38;;
83094;SDS011;72967;43.674;6.976;2024-03-02T06:05:29;1.25;;;1.10;;
83094;SDS011;72967;43.674;6.976;2024-03-02T06:07:54;2.15;;;1.30;;
83094;SDS011;72967;43.674;6.976;2024-03-02T06:10:20;2.28;;;1.17;;
83094;SDS011;72967;43.674;6.976;2024-03-02T06:12:45;1.75;;;1.58;;
83094;SDS011;72967;43.674;6.976;2024-03-02T06:15:11;1.80;;;1.33;;
83094;SDS011;72967;43.674;6.976;2024-03-02T06:17:36;2.20;;;1.17;;
83094;SDS011;72967;43.674;6.976;2024-03-02T06:20:02;1.80;;;1.20;;
83094;SDS011;72967;43.674;6.976;2024-03-02T06:22:28;1.17;;;1.00;;
83094;SDS011;72967;43.674;6.976;2024-03-02T06:24:53;1.60;;;1.42;;
83094;SDS011;72967;43.674;6.976;2024-03-02T06:27:18;1.15;;;1.00;;
83094;SDS011;72967;43.674;6.976;2024-03-02T06:29:44;2.05;;;1.27;;
83094;SDS011;72967;43.674;6.976;2024-03-02T06:32:10;1.55;;;1.33;;
83094;SDS011;72967;43.674;6.976;2024-03-02T06:34:35;2.42;;;1.20;;
83094;SDS011;72967;43.674;6.976;2024-03-02T06:37:01;3.38;;;1.92;;
83094;SDS011;72967;43.674;6.976;2024-03-02T06:39:27;3.08;;;1.80;;
83094;SDS011;72967;43.674;6.976;2024-03-02T06:41:52;2.40;;;1.60;;
83094;SDS011;72967;43.674;6.976;2024-03-02T06:44:18;2.28;;;1.60;;
83094;SDS011;72967;43.674;6.976;2024-03-02T06:46:43;3.42;;;1.73;;
83094;SDS011;72967;43.674;6.976;2024-03-02T06:49:09;2.05;;;1.50;;
83094;SDS011;72967;43.674;6.976;2024-03-02T06:51:37;3.33;;;1.50;;
83094;SDS011;72967;43.674;6.976;2024-03-02T06:54:02;2.83;;;1.70;;
83094;SDS011;72967;43.674;6.976;2024-03-02T06:56:28;2.20;;;1.25;;
83094;SDS011;72967;43.674;6.976;2024-03-02T06:58:53;2.05;;;1.40;;
83094;SDS011;72967;43.674;6.976;2024-03-02T07:01:19;1.48;;;1.38;;
83094;SDS011;72967;43.674;6.976;2024-03-02T07:03:45;1.92;;;1.25;;
83094;SDS011;72967;43.674;6.976;2024-03-02T07:06:11;2.10;;;1.23;;
83094;SDS011;72967;43.674;6.976;2024-03-02T07:08:36;3.03;;;1.23;;
83094;SDS011;72967;43.674;6.976;2024-03-02T07:11:01;1.23;;;1.10;;
83094;SDS011;72967;43.674;6.976;2024-03-02T07:13:27;1.85;;;1.20;;
83094;SDS011;72967;43.674;6.976;2024-03-02T07:15:52;2.88;;;1.58;;
83094;SDS011;72967;43.674;6.976;2024-03-02T07:18:36;2.55;;;1.33;;
83094;SDS011;72967;43.674;6.976;2024-03-02T07:21:09;2.75;;;1.38;;
83094;SDS011;72967;43.674;6.976;2024-03-02T07:23:35;1.45;;;0.95;;
83094;SDS011;72967;43.674;6.976;2024-03-02T07:26:01;1.85;;;1.27;;
83094;SDS011;72967;43.674;6.976;2024-03-02T07:28:27;1.98;;;1.52;;
83094;SDS011;72967;43.674;6.976;2024-03-02T07:31:02;2.00;;;1.13;;
83094;SDS011;72967;43.674;6.976;2024-03-02T07:33:29;6.65;;;1.63;;
83094;SDS011;72967;43.674;6.976;2024-03-02T07:35:55;1.23;;;1.10;;
83094;SDS011;72967;43.674;6.976;2024-03-02T07:38:21;3.17;;;1.02;;
83094;SDS011;72967;43.674;6.976;2024-03-02T07:40:47;2.17;;;1.30;;
83094;SDS011;72967;43.674;6.976;2024-03-02T07:43:17;1.60;;;1.42;;
83094;SDS011;72967;43.674;6.976;2024-03-02T07:45:43;2.63;;;1.30;;
83094;SDS011;72967;43.674;6.976;2024-03-02T07:48:08;1.70;;;1.17;;
83094;SDS011;72967;43.674;6.976;2024-03-02T07:50:34;2.72;;;1.83;;
83094;SDS011;72967;43.674;6.976;2024-03-02T07:53:01;1.83;;;1.73;;
83094;SDS011;72967;43.674;6.976;2024-03-02T07:55:27;3.28;;;1.67;;
83094;SDS011;72967;43.674;6.976;2024-03-02T07:57:52;2.65;;;1.35;;
83094;SDS011;72967;43.674;6.976;2024-03-02T08:00:17;5.35;;;1.40;;
83094;SDS011;72967;43.674;6.976;2024-03-02T08:02:43;1.45;;;1.30;;
83094;SDS011;72967;43.674;6.976;2024-03-02T08:05:09;1.17;;;1.00;;
83094;SDS011;72967;43.674;6.976;2024-03-02T08:07:34;1.73;;;1.00;;
83094;SDS011;72967;43.674;6.976;2024-03-02T08:10:00;1.83;;;1.45;;
83094;SDS011;72967;43.674;6.976;2024-03-02T08:12:25;1.92;;;1.60;;
83094;SDS011;72967;43.674;6.976;2024-03-02T08:14:51;1.35;;;1.25;;
83094;SDS011;72967;43.674;6.976;2024-03-02T08:17:16;1.60;;;1.40;;
83094;SDS011;72967;43.674;6.976;2024-03-02T08:19:42;2.50;;;1.48;;
83094;SDS011;72967;43.674;6.976;2024-03-02T08:22:08;2.83;;;1.70;;
83094;SDS011;72967;43.674;6.976;2024-03-02T08:24:33;4.25;;;1.60;;
83094;SDS011;72967;43.674;6.976;2024-03-02T08:26:59;5.70;;;1.70;;
83094;SDS011;72967;43.674;6.976;2024-03-02T08:29:25;1.50;;;1.10;;
83094;SDS011;72967;43.674;6.976;2024-03-02T08:31:50;1.70;;;1.60;;
83094;SDS011;72967;43.674;6.976;2024-03-02T08:34:16;3.03;;;1.40;;
83094;SDS011;72967;43.674;6.976;2024-03-02T08:36:41;2.13;;;1.45;;
83094;SDS011;72967;43.674;6.976;2024-03-02T08:39:10;3.03;;;1.63;;
83094;SDS011;72967;43.674;6.976;2024-03-02T08:41:40;2.55;;;1.75;;
83094;SDS011;72967;43.674;6.976;2024-03-02T08:44:15;3.33;;;2.08;;
83094;SDS011;72967;43.674;6.976;2024-03-02T08:46:41;2.38;;;2.10;;
83094;SDS011;72967;43.674;6.976;2024-03-02T08:49:06;2.40;;;1.75;;
83094;SDS011;72967;43.674;6.976;2024-03-02T08:51:32;4.85;;;1.88;;
83094;SDS011;72967;43.674;6.976;2024-03-02T08:53:58;4.53;;;2.20;;
83094;SDS011;72967;43.674;6.976;2024-03-02T08:56:24;2.72;;;1.55;;
83094;SDS011;72967;43.674;6.976;2024-03-02T08:58:49;2.03;;;1.65;;
83094;SDS011;72967;43.674;6.976;2024-03-02T09:01:15;6.15;;;2.22;;
83094;SDS011;72967;43.674;6.976;2024-03-02T09:03:42;1.98;;;1.50;;
83094;SDS011;72967;43.674;6.976;2024-03-02T09:06:11;4.03;;;1.90;;
83094;SDS011;72967;43.674;6.976;2024-03-02T09:08:37;2.40;;;1.85;;
83094;SDS011;72967;43.674;6.976;2024-03-02T09:11:04;2.78;;;2.28;;
83094;SDS011;72967;43.674;6.976;2024-03-02T09:13:30;3.30;;;2.13;;
83094;SDS011;72967;43.674;6.976;2024-03-02T09:15:56;2.55;;;2.10;;
83094;SDS011;72967;43.674;6.976;2024-03-02T09:18:22;4.32;;;2.92;;
83094;SDS011;72967;43.674;6.976;2024-03-02T09:20:47;4.88;;;2.20;;
83094;SDS011;72967;43.674;6.976;2024-03-02T09:23:13;3.75;;;2.97;;
83094;SDS011;72967;43.674;6.976;2024-03-02T09:25:38;4.35;;;2.42;;
83094;SDS011;72967;43.674;6.976;2024-03-02T09:28:03;5.80;;;2.40;;
83094;SDS011;72967;43.674;6.976;2024-03-02T09:30:29;4.13;;;2.08;;
83094;SDS011;72967;43.674;6.976;2024-03-02T09:32:54;2.90;;;2.13;;
83094;SDS011;72967;43.674;6.976;2024-03-02T09:35:20;3.50;;;2.42;;
83094;SDS011;72967;43.674;6.976;2024-03-02T09:37:45;3.78;;;2.17;;
83094;SDS011;72967;43.674;6.976;2024-03-02T09:40:11;4.22;;;2.17;;
83094;SDS011;72967;43.674;6.976;2024-03-02T09:42:38;3.22;;;2.03;;
83094;SDS011;72967;43.674;6.976;2024-03-02T09:45:05;2.70;;;2.40;;
83094;SDS011;72967;43.674;6.976;2024-03-02T09:47:31;2.80;;;2.20;;
83094;SDS011;72967;43.674;6.976;2024-03-02T09:49:57;2.67;;;2.33;;
83094;SDS011;72967;43.674;6.976;2024-03-02T09:52:22;4.93;;;2.35;;
83094;SDS011;72967;43.674;6.976;2024-03-02T09:54:48;2.17;;;1.73;;
83094;SDS011;72967;43.674;6.976;2024-03-02T09:57:14;3.22;;;2.45;;
83094;SDS011;72967;43.674;6.976;2024-03-02T09:59:40;3.00;;;1.83;;
83094;SDS011;72967;43.674;6.976;2024-03-02T10:02:05;3.08;;;2.00;;
83094;SDS011;72967;43.674;6.976;2024-03-02T10:04:32;2.95;;;2.20;;
83094;SDS011;72967;43.674;6.976;2024-03-02T10:09:46;3.95;;;1.70;;
83094;SDS011;72967;43.674;6.976;2024-03-02T10:14:40;4.72;;;2.40;;
83094;SDS011;72967;43.674;6.976;2024-03-02T10:17:06;3.55;;;2.28;;
83094;SDS011;72967;43.674;6.976;2024-03-02T10:19:32;2.90;;;2.25;;
83094;SDS011;72967;43.674;6.976;2024-03-02T10:22:00;3.30;;;2.60;;
83094;SDS011;72967;43.674;6.976;2024-03-02T10:24:28;6.15;;;1.92;;
83094;SDS011;72967;43.674;6.976;2024-03-02T10:27:02;4.10;;;2.20;;
83094;SDS011;72967;43.674;6.976;2024-03-02T10:29:35;4.75;;;1.90;;
83094;SDS011;72967;43.674;6.976;2024-03-02T10:32:02;4.10;;;1.77;;
83094;SDS011;72967;43.674;6.976;2024-03-02T10:34:28;5.32;;;2.42;;
83094;SDS011;72967;43.674;6.976;2024-03-02T10:36:53;2.72;;;1.92;;
83094;SDS011;72967;43.674;6.976;2024-03-02T10:39:20;2.95;;;1.77;;
83094;SDS011;72967;43.674;6.976;2024-03-02T10:41:46;3.03;;;1.83;;
83094;SDS011;72967;43.674;6.976;2024-03-02T10:44:14;5.57;;;2.28;;
83094;SDS011;72967;43.674;6.976;2024-03-02T10:46:41;3.33;;;1.90;;
83094;SDS011;72967;43.674;6.976;2024-03-02T10:49:10;4.30;;;2.15;;
83094;SDS011;72967;43.674;6.976;2024-03-02T10:51:36;5.85;;;2.38;;
83094;SDS011;72967;43.674;6.976;2024-03-02T10:54:03;2.80;;;1.90;;
83094;SDS011;72967;43.674;6.976;2024-03-02T10:56:30;3.08;;;1.63;;
83094;SDS011;72967;43.674;6.976;2024-03-02T11:01:31;2.38;;;1.35;;
83094;SDS011;72967;43.674;6.976;2024-03-02T11:03:58;2.92;;;1.60;;
83094;SDS011;72967;43.674;6.976;2024-03-02T11:06:27;2.08;;;1.17;;
83094;SDS011;72967;43.674;6.976;2024-03-02T11:08:54;1.92;;;1.40;;
83094;SDS011;72967;43.674;6.976;2024-03-02T11:11:27;3.08;;;1.50;;
83094;SDS011;72967;43.674;6.976;2024-03-02T11:13:55;2.35;;;1.42;;
83094;SDS011;72967;43.674;6.976;2024-03-02T11:16:31;2.60;;;1.30;;
83094;SDS011;72967;43.674;6.976;2024-03-02T11:19:11;2.00;;;1.48;;
83094;SDS011;72967;43.674;6.976;2024-03-02T11:21:38;1.60;;;1.50;;
83094;SDS011;72967;43.674;6.976;2024-03-02T11:24:28;3.42;;;1.40;;
83094;SDS011;72967;43.674;6.976;2024-03-02T11:26:57;1.60;;;1.48;;
83094;SDS011;72967;43.674;6.976;2024-03-02T11:32:01;1.90;;;1.50;;
83094;SDS011;72967;43.674;6.976;2024-03-02T11:34:47;2.95;;;1.50;;
83094;SDS011;72967;43.674;6.976;2024-03-02T11:37:17;1.60;;;1.23;;
83094;SDS011;72967;43.674;6.976;2024-03-02T11:39:46;1.77;;;1.20;;
83094;SDS011;72967;43.674;6.976;2024-03-02T11:42:15;2.80;;;1.15;;
83094;SDS011;72967;43.674;6.976;2024-03-02T11:44:42;1.80;;;1.23;;
83094;SDS011;72967;43.674;6.976;2024-03-02T11:47:10;2.38;;;1.42;;
83094;SDS011;72967;43.674;6.976;2024-03-02T11:49:51;3.60;;;1.90;;
83094;SDS011;72967;43.674;6.976;2024-03-02T11:52:17;1.83;;;1.30;;
83094;SDS011;72967;43.674;6.976;2024-03-02T11:54:44;3.67;;;1.30;;
83094;SDS011;72967;43.674;6.976;2024-03-02T11:57:19;4.00;;;1.40;;
83094;SDS011;72967;43.674;6.976;2024-03-02T11:59:47;2.63;;;1.20;;
83094;SDS011;72967;43.674;6.976;2024-03-02T12:02:15;2.83;;;1.33;;
83094;SDS011;72967;43.674;6.976;2024-03-02T12:04:42;2.72;;;1.73;;
83094;SDS011;72967;43.674;6.976;2024-03-02T12:07:08;4.13;;;1.17;;
83094;SDS011;72967;43.674;6.976;2024-03-02T12:09:34;1.90;;;1.60;;
83094;SDS011;72967;43.674;6.976;2024-03-02T12:12:06;5.35;;;1.75;;
83094;SDS011;72967;43.674;6.976;2024-03-02T12:14:33;2.80;;;1.20;;
83094;SDS011;72967;43.674;6.976;2024-03-02T12:17:00;2.75;;;1.60;;
83094;SDS011;72967;43.674;6.976;2024-03-02T12:19:26;2.72;;;1.48;;
83094;SDS011;72967;43.674;6.976;2024-03-02T12:21:52;5.82;;;1.50;;
83094;SDS011;72967;43.674;6.976;2024-03-02T12:24:18;3.53;;;1.58;;
83094;SDS011;72967;43.674;6.976;2024-03-02T12:26:44;6.60;;;1.67;;
83094;SDS011;72967;43.674;6.976;2024-03-02T12:29:10;7.10;;;2.15;;
83094;SDS011;72967;43.674;6.976;2024-03-02T12:31:36;7.45;;;1.92;;
83094;SDS011;72967;43.674;6.976;2024-03-02T12:34:02;6.03;;;1.83;;
83094;SDS011;72967;43.674;6.976;2024-03-02T12:36:29;4.43;;;1.85;;
83094;SDS011;72967;43.674;6.976;2024-03-02T12:38:54;2.30;;;1.70;;
83094;SDS011;72967;43.674;6.976;2024-03-02T12:41:20;7.07;;;1.52;;
83094;SDS011;72967;43.674;6.976;2024-03-02T12:43:46;4.97;;;1.77;;
83094;SDS011;72967;43.674;6.976;2024-03-02T12:46:11;4.78;;;1.50;;
83094;SDS011;72967;43.674;6.976;2024-03-02T12:48:37;5.75;;;2.60;;
83094;SDS011;72967;43.674;6.976;2024-03-02T12:51:05;5.63;;;1.77;;
83094;SDS011;72967;43.674;6.976;2024-03-02T12:53:31;8.85;;;1.77;;
83094;SDS011;72967;43.674;6.976;2024-03-02T12:55:57;5.90;;;2.72;;
83094;SDS011;72967;43.674;6.976;2024-03-02T12:58:23;5.30;;;1.65;;
83094;SDS011;72967;43.674;6.976;2024-03-02T13:00:49;6.43;;;2.55;;
83094;SDS011;72967;43.674;6.976;2024-03-02T13:03:14;6.35;;;1.70;;
83094;SDS011;72967;43.674;6.976;2024-03-02T13:05:47;7.65;;;1.65;;
83094;SDS011;72967;43.674;6.976;2024-03-02T13:08:13;4.28;;;1.27;;
83094;SDS011;72967;43.674;6.976;2024-03-02T13:10:39;4.32;;;1.40;;
83094;SDS011;72967;43.674;6.976;2024-03-02T13:13:06;7.07;;;1.70;;
83094;SDS011;72967;43.674;6.976;2024-03-02T13:15:32;6.20;;;1.50;;
83094;SDS011;72967;43.674;6.976;2024-03-02T13:18:00;6.38;;;1.40;;
83094;SDS011;72967;43.674;6.976;2024-03-02T13:20:29;7.10;;;1.92;;
83094;SDS011;72967;43.674;6.976;2024-03-02T13:22:58;10.50;;;2.25;;
83094;SDS011;72967;43.674;6.976;2024-03-02T13:25:23;9.73;;;1.83;;
83094;SDS011;72967;43.674;6.976;2024-03-02T13:27:48;8.15;;;2.08;;
83094;SDS011;72967;43.674;6.976;2024-03-02T13:30:14;6.70;;;1.80;;
83094;SDS011;72967;43.674;6.976;2024-03-02T13:32:39;4.80;;;1.73;;
83094;SDS011;72967;43.674;6.976;2024-03-02T13:35:05;7.85;;;2.35;;
83094;SDS011;72967;43.674;6.976;2024-03-02T13:37:30;8.55;;;2.30;;
83094;SDS011;72967;43.674;6.976;2024-03-02T13:39:56;8.43;;;1.98;;
83094;SDS011;72967;43.674;6.976;2024-03-02T13:42:21;9.32;;;3.30;;
83094;SDS011;72967;43.674;6.976;2024-03-02T13:44:47;6.80;;;2.05;;
83094;SDS011;72967;43.674;6.976;2024-03-02T13:47:14;10.48;;;2.58;;
83094;SDS011;72967;43.674;6.976;2024-03-02T13:49:40;12.48;;;2.00;;
83094;SDS011;72967;43.674;6.976;2024-03-02T13:52:09;8.35;;;2.22;;
83094;SDS011;72967;43.674;6.976;2024-03-02T13:54:42;8.65;;;1.77;;
83094;SDS011;72967;43.674;6.976;2024-03-02T13:57:09;12.95;;;2.42;;
83094;SDS011;72967;43.674;6.976;2024-03-02T13:59:36;7.47;;;1.60;;
83094;SDS011;72967;43.674;6.976;2024-03-02T14:02:02;6.80;;;1.98;;
83094;SDS011;72967;43.674;6.976;2024-03-02T14:04:32;8.93;;;2.35;;
83094;SDS011;72967;43.674;6.976;2024-03-02T14:06:58;6.82;;;2.63;;
83094;SDS011;72967;43.674;6.976;2024-03-02T14:09:24;6.70;;;2.25;;
83094;SDS011;72967;43.674;6.976;2024-03-02T14:11:50;11.57;;;3.08;;
83094;SDS011;72967;43.674;6.976;2024-03-02T14:14:16;5.70;;;2.10;;
83094;SDS011;72967;43.674;6.976;2024-03-02T14:16:41;10.65;;;1.98;;
83094;SDS011;72967;43.674;6.976;2024-03-02T14:19:07;8.95;;;3.13;;
83094;SDS011;72967;43.674;6.976;2024-03-02T14:21:34;7.45;;;3.28;;
83094;SDS011;72967;43.674;6.976;2024-03-02T14:24:00;10.23;;;2.85;;
83094;SDS011;72967;43.674;6.976;2024-03-02T14:26:26;12.25;;;2.70;;
83094;SDS011;72967;43.674;6.976;2024-03-02T14:28:53;7.22;;;2.65;;
83094;SDS011;72967;43.674;6.976;2024-03-02T14:31:19;6.25;;;1.92;;
83094;SDS011;72967;43.674;6.976;2024-03-02T14:33:45;13.18;;;2.22;;
83094;SDS011;72967;43.674;6.976;2024-03-02T14:36:11;6.75;;;2.53;;
83094;SDS011;72967;43.674;6.976;2024-03-02T14:38:36;11.63;;;2.85;;
83094;SDS011;72967;43.674;6.976;2024-03-02T14:41:03;10.98;;;3.03;;
83094;SDS011;72967;43.674;6.976;2024-03-02T14:43:29;13.50;;;2.58;;
83094;SDS011;72967;43.674;6.976;2024-03-02T14:45:54;6.68;;;1.73;;
83094;SDS011;72967;43.674;6.976;2024-03-02T14:48:20;12.55;;;1.67;;
83094;SDS011;72967;43.674;6.976;2024-03-02T14:50:46;8.05;;;2.22;;
83094;SDS011;72967;43.674;6.976;2024-03-02T14:53:12;9.50;;;2.33;;
83094;SDS011;72967;43.674;6.976;2024-03-02T14:55:37;9.40;;;1.92;;
83094;SDS011;72967;43.674;6.976;2024-03-02T14:58:03;10.07;;;1.92;;
83094;SDS011;72967;43.674;6.976;2024-03-02T15:00:28;7.68;;;2.58;;
83094;SDS011;72967;43.674;6.976;2024-03-02T15:02:54;11.07;;;2.15;;